createdAt,value
2018-06-08T00:01:16.111Z,22.30
2018-06-08T00:03:45.529Z,23.80
2018-06-08T00:06:14.819Z,21.80
2018-06-08T00:08:43.580Z,21.80
2018-06-08T00:11:12.990Z,23.70
2018-06-08T00:13:42.299Z,24.70
2018-06-08T00:16:11.653Z,24.90
2018-06-08T00:18:40.965Z,19.67
2018-06-08T00:21:10.235Z,21.53
2018-06-08T00:23:39.513Z,28.10
2018-06-08T00:26:08.828Z,25.80
2018-06-08T00:28:38.103Z,24.97
2018-06-08T00:31:07.351Z,22.53
2018-06-08T00:33:36.658Z,34.73
2018-06-08T00:36:05.927Z,29.70
2018-06-08T00:38:35.222Z,35.83
2018-06-08T00:41:04.531Z,33.90
2018-06-08T00:43:33.821Z,28.63
2018-06-08T00:46:03.217Z,31.67
2018-06-08T00:48:32.501Z,32.43
2018-06-08T00:51:01.287Z,42.47
2018-06-08T00:53:30.571Z,31.90
2018-06-08T00:55:59.902Z,34.77
2018-06-08T00:58:29.216Z,39.03
2018-06-08T01:00:58.517Z,31.40
2018-06-08T01:03:27.805Z,37.80
2018-06-08T01:05:57.036Z,35.63
2018-06-08T01:08:26.310Z,31.90
2018-06-08T01:10:55.595Z,33.23
2018-06-08T01:13:24.355Z,35.63
2018-06-08T01:15:53.662Z,39.37
2018-06-08T01:18:22.977Z,31.67
2018-06-08T01:20:52.265Z,36.03
2018-06-08T01:23:21.554Z,33.07
2018-06-08T01:25:50.870Z,37.70
2018-06-08T01:28:20.150Z,35.23
2018-06-08T01:30:49.491Z,27.80
2018-06-08T01:33:18.769Z,27.83
2018-06-08T01:35:48.039Z,27.80
2018-06-08T01:38:17.303Z,32.73
2018-06-08T01:40:46.628Z,21.00
2018-06-08T01:43:15.936Z,23.30
2018-06-08T01:45:45.233Z,26.57
2018-06-08T01:48:14.543Z,30.03
2018-06-08T01:50:43.872Z,32.10
2018-06-08T01:53:13.115Z,30.30
2018-06-08T01:55:42.440Z,29.67
2018-06-08T01:58:11.749Z,27.60
2018-06-08T02:00:41.121Z,28.37
2018-06-08T02:03:10.436Z,25.70
2018-06-08T02:05:39.753Z,29.83
2018-06-08T02:08:09.046Z,36.10
2018-06-08T02:10:38.397Z,24.47
2018-06-08T02:13:07.724Z,25.80
2018-06-08T02:15:36.985Z,27.97
2018-06-08T02:18:06.359Z,31.03
2018-06-08T02:20:35.803Z,30.57
2018-06-08T02:23:05.269Z,29.43
2018-06-08T02:25:34.697Z,24.53
2018-06-08T02:28:04.043Z,34.97
2018-06-08T02:30:33.436Z,28.13
2018-06-08T02:33:02.960Z,22.63
2018-06-08T02:35:32.279Z,24.43
2018-06-08T02:38:01.595Z,28.37
2018-06-08T02:40:30.359Z,27.87
2018-06-08T02:42:59.640Z,29.13
2018-06-08T02:45:29.040Z,27.87
2018-06-08T02:47:58.330Z,31.20
2018-06-08T02:50:27.623Z,41.17
2018-06-08T02:52:56.884Z,30.27
2018-06-08T02:55:26.186Z,32.10
2018-06-08T02:57:55.488Z,23.30
2018-06-08T03:00:24.232Z,36.33
2018-06-08T03:02:53.592Z,30.70
2018-06-08T03:05:22.922Z,22.67
2018-06-08T03:07:52.186Z,24.10
2018-06-08T03:10:21.523Z,33.57
2018-06-08T03:12:50.806Z,38.90
2018-06-08T03:15:20.047Z,28.70
2018-06-08T03:17:49.361Z,28.50
2018-06-08T03:20:19.602Z,23.73
2018-06-08T03:22:48.339Z,32.53
2018-06-08T03:25:17.673Z,30.60
2018-06-08T03:27:46.941Z,25.53
2018-06-08T03:30:16.254Z,33.93
2018-06-08T03:32:45.527Z,26.00
2018-06-08T03:35:14.862Z,28.33
2018-06-08T03:37:44.121Z,34.03
2018-06-08T03:40:13.504Z,35.87
2018-06-08T03:42:42.812Z,28.60
2018-06-08T03:45:12.089Z,32.43
2018-06-08T03:47:41.446Z,28.30
2018-06-08T03:50:10.733Z,27.30
2018-06-08T03:52:40.017Z,29.80
2018-06-08T03:55:09.444Z,27.30
2018-06-08T03:57:38.704Z,27.97
2018-06-08T04:00:08.040Z,34.27
2018-06-08T04:02:37.420Z,29.90
2018-06-08T04:05:06.742Z,26.27
2018-06-08T04:07:35.994Z,32.37
2018-06-08T04:10:05.436Z,31.50
2018-06-08T04:12:34.747Z,36.47
2018-06-08T04:15:04.183Z,27.50
2018-06-08T04:17:33.495Z,25.40
2018-06-08T04:20:03.471Z,40.20
2018-06-08T04:22:32.807Z,29.07
2018-06-08T04:25:02.087Z,34.77
2018-06-08T04:27:31.331Z,30.77
2018-06-08T04:30:00.686Z,28.10
2018-06-08T04:32:30.109Z,37.27
2018-06-08T04:34:59.401Z,27.43
2018-06-08T04:37:28.660Z,32.83
2018-06-08T04:39:57.923Z,32.73
2018-06-08T04:42:27.215Z,29.83
2018-06-08T04:44:56.493Z,32.77
2018-06-08T04:47:25.841Z,41.07
2018-06-08T04:49:55.184Z,43.10
2018-06-08T04:52:24.523Z,29.00
2018-06-08T04:54:53.894Z,34.37
2018-06-08T04:57:23.201Z,35.60
2018-06-08T04:59:52.525Z,32.37
2018-06-08T05:02:21.375Z,36.50
2018-06-08T05:04:50.630Z,48.33
2018-06-08T05:07:19.874Z,35.37
2018-06-08T05:09:49.205Z,43.60
2018-06-08T05:12:18.506Z,45.87
2018-06-08T05:14:49.588Z,38.30
2018-06-08T05:17:18.872Z,32.33
2018-06-08T05:19:48.116Z,36.53
2018-06-08T05:22:17.525Z,34.50
2018-06-08T05:24:46.812Z,35.60
2018-06-08T05:27:16.413Z,46.77
2018-06-08T05:29:45.693Z,41.57
2018-06-08T05:32:15.056Z,39.37
2018-06-08T05:34:44.349Z,43.70
2018-06-08T05:37:13.682Z,40.80
2018-06-08T05:39:42.975Z,42.63
2018-06-08T05:42:12.216Z,45.30
2018-06-08T05:44:41.519Z,39.07
2018-06-08T05:47:10.816Z,38.13
2018-06-08T05:49:40.075Z,45.07
2018-06-08T05:52:09.501Z,51.30
2018-06-08T05:54:39.088Z,50.20
2018-06-08T05:57:08.369Z,46.73
2018-06-08T05:59:37.662Z,51.90
2018-06-08T06:02:06.756Z,40.50
2018-06-08T06:04:35.511Z,49.20
2018-06-08T06:07:04.840Z,51.60
2018-06-08T06:09:33.695Z,50.40
2018-06-08T06:12:03.016Z,59.17
2018-06-08T06:14:32.342Z,67.37
2018-06-08T06:17:01.656Z,53.30
2018-06-08T06:19:31.049Z,69.17
2018-06-08T06:22:00.348Z,55.17
2018-06-08T06:24:29.624Z,61.17
2018-06-08T06:26:58.932Z,65.37
2018-06-08T06:29:28.692Z,80.83
2018-06-08T06:31:58.011Z,61.53
2018-06-08T06:34:27.370Z,79.67
2018-06-08T06:36:56.655Z,79.10
2018-06-08T06:39:25.952Z,74.80
2018-06-08T06:41:55.290Z,71.50
2018-06-08T06:44:24.551Z,73.13
2018-06-08T06:46:53.816Z,77.20
2018-06-08T06:49:23.159Z,82.50
2018-06-08T06:51:52.517Z,84.00
2018-06-08T06:54:21.921Z,80.20
2018-06-08T06:56:51.261Z,84.90
2018-06-08T06:59:20.652Z,76.13
2018-06-08T07:01:50.176Z,80.30
2018-06-08T07:04:19.732Z,81.43
2018-06-08T07:06:49.163Z,83.03
2018-06-08T07:09:18.446Z,71.77
2018-06-08T07:11:47.711Z,68.83
2018-06-08T07:14:16.975Z,69.73
2018-06-08T07:16:46.287Z,59.83
2018-06-08T07:19:15.619Z,77.77
2018-06-08T07:21:44.979Z,58.47
2018-06-08T07:24:13.862Z,63.13
2018-06-08T07:26:42.707Z,62.93
2018-06-08T07:29:11.983Z,62.77
2018-06-08T07:31:41.309Z,58.30
2018-06-08T07:34:10.637Z,62.80
2018-06-08T07:36:39.392Z,55.43
2018-06-08T07:39:08.870Z,69.40
2018-06-08T07:41:38.177Z,62.63
2018-06-08T07:44:07.435Z,62.03
2018-06-08T07:46:36.795Z,54.00
2018-06-08T07:49:06.380Z,65.40
2018-06-08T07:51:35.794Z,62.70
2018-06-08T07:54:05.235Z,55.83
2018-06-08T07:56:34.658Z,64.07
2018-06-08T07:59:04.028Z,51.57
2018-06-08T08:01:33.795Z,53.30
2018-06-08T08:04:03.061Z,60.00
2018-06-08T08:06:32.327Z,54.20
2018-06-08T08:09:01.631Z,52.57
2018-06-08T08:11:30.954Z,51.90
2018-06-08T08:14:00.212Z,52.67
2018-06-08T08:16:29.496Z,56.57
2018-06-08T08:18:58.776Z,54.50
2018-06-08T08:21:28.065Z,63.17
2018-06-08T08:23:57.387Z,60.17
2018-06-08T08:26:26.661Z,63.20
2018-06-08T08:28:55.421Z,68.70
2018-06-08T08:31:24.720Z,63.43
2018-06-08T08:33:54.092Z,64.57
2018-06-08T08:36:23.367Z,62.37
2018-06-08T08:38:52.180Z,60.27
2018-06-08T08:41:21.644Z,62.37
2018-06-08T08:43:50.896Z,56.30
2018-06-08T08:46:20.175Z,60.40
2018-06-08T08:48:49.513Z,55.60
2018-06-08T08:51:18.786Z,66.77
2018-06-08T08:53:48.099Z,56.50
2018-06-08T08:56:17.520Z,52.30
2018-06-08T08:58:46.859Z,43.03
2018-06-08T09:01:18.202Z,43.60
2018-06-08T09:03:47.642Z,40.43
2018-06-08T09:06:16.995Z,61.80
2018-06-08T09:08:46.277Z,44.70
2018-06-08T09:11:15.676Z,41.93
2018-06-08T09:13:44.977Z,37.10
2018-06-08T09:16:14.372Z,36.57
2018-06-08T09:18:44.348Z,42.80
2018-06-08T09:21:13.621Z,36.40
2018-06-08T09:23:43.032Z,43.30
2018-06-08T09:26:12.367Z,42.57
2018-06-08T09:28:41.743Z,29.40
2018-06-08T09:31:11.016Z,31.53
2018-06-08T09:33:40.341Z,36.17
2018-06-08T09:36:10.652Z,34.77
2018-06-08T09:38:39.960Z,25.53
2018-06-08T09:41:09.340Z,37.43
2018-06-08T09:43:38.724Z,32.80
2018-06-08T09:46:08.168Z,28.63
2018-06-08T09:48:37.445Z,28.43
2018-06-08T09:51:06.284Z,25.63
2018-06-08T09:53:35.537Z,24.93
2018-06-08T09:56:05.203Z,21.30
2018-06-08T09:58:34.532Z,29.07
2018-06-08T10:01:03.932Z,26.47
2018-06-08T10:03:33.233Z,30.50
2018-06-08T10:06:02.528Z,26.27
2018-06-08T10:08:31.825Z,35.60
2018-06-08T10:11:01.173Z,24.23
2018-06-08T10:13:30.460Z,30.53
2018-06-08T10:15:59.810Z,26.07
2018-06-08T10:18:29.082Z,29.53
2018-06-08T10:20:58.376Z,27.47
2018-06-08T10:23:27.653Z,25.40
2018-06-08T10:25:56.411Z,24.23
2018-06-08T10:28:25.743Z,30.57
2018-06-08T10:30:55.023Z,18.47
2018-06-08T10:33:24.302Z,19.87
2018-06-08T10:35:53.598Z,20.37
2018-06-08T10:38:22.919Z,27.63
2018-06-08T10:40:52.326Z,31.27
2018-06-08T10:43:21.599Z,20.90
2018-06-08T10:45:50.942Z,19.13
2018-06-08T10:48:20.193Z,19.30
2018-06-08T10:50:49.482Z,19.70
2018-06-08T10:53:18.751Z,17.57
2018-06-08T10:55:48.018Z,19.27
2018-06-08T10:58:17.757Z,22.70
2018-06-08T11:00:47.210Z,18.17
2018-06-08T11:03:16.764Z,14.67
2018-06-08T11:05:46.157Z,16.83
2018-06-08T11:08:15.532Z,14.17
2018-06-08T11:10:44.972Z,19.97
2018-06-08T11:13:14.314Z,31.13
2018-06-08T11:15:43.731Z,23.93
2018-06-08T11:18:13.026Z,18.20
2018-06-08T11:20:42.504Z,16.50
2018-06-08T11:23:11.837Z,22.73
2018-06-08T11:25:41.103Z,14.57
2018-06-08T11:28:11.201Z,22.70
2018-06-08T11:30:41.556Z,14.73
2018-06-08T11:33:10.849Z,16.40
2018-06-08T11:35:40.112Z,20.23
2018-06-08T11:38:08.839Z,15.87
2018-06-08T11:40:38.108Z,14.00
2018-06-08T11:43:06.832Z,19.50
2018-06-08T11:45:36.129Z,14.27
2018-06-08T11:48:05.445Z,15.67
2018-06-08T11:50:34.714Z,15.90
2018-06-08T11:53:06.946Z,16.93
2018-06-08T11:55:36.251Z,13.73
2018-06-08T11:58:05.554Z,18.13
2018-06-08T12:00:34.315Z,12.17
2018-06-08T12:03:03.612Z,11.57
2018-06-08T12:05:32.352Z,14.60
2018-06-08T12:08:01.612Z,9.80
2018-06-08T12:10:30.875Z,11.37
2018-06-08T12:13:00.588Z,15.23
2018-06-08T12:15:29.862Z,8.93
2018-06-08T12:17:59.159Z,9.87
2018-06-08T12:20:28.440Z,18.47
2018-06-08T12:22:57.189Z,14.37
2018-06-08T12:25:26.422Z,23.03
2018-06-08T12:27:55.120Z,14.47
2018-06-08T12:30:24.473Z,16.60
2018-06-08T12:32:53.721Z,10.80
2018-06-08T12:35:23.052Z,13.20
2018-06-08T12:37:52.384Z,12.73
2018-06-08T12:40:21.673Z,11.30
2018-06-08T12:42:52.753Z,14.20
2018-06-08T12:45:22.147Z,12.97
2018-06-08T12:47:52.611Z,12.17
2018-06-08T12:50:21.939Z,17.40
2018-06-08T12:52:52.095Z,17.77
2018-06-08T12:55:21.552Z,6.70
2018-06-08T12:57:50.904Z,12.30
2018-06-08T13:00:20.253Z,4.07
2018-06-08T13:02:50.397Z,8.87
2018-06-08T13:05:19.756Z,5.20
2018-06-08T13:07:49.078Z,7.07
2018-06-08T13:10:18.465Z,10.47
2018-06-08T13:12:47.811Z,8.00
2018-06-08T13:15:17.107Z,4.83
2018-06-08T13:17:46.431Z,3.47
2018-06-08T13:20:15.898Z,6.30
2018-06-08T13:22:45.258Z,4.20
2018-06-08T13:25:14.615Z,7.57
2018-06-08T13:27:43.894Z,6.73
2018-06-08T13:30:13.202Z,4.70
2018-06-08T13:32:44.504Z,5.27
2018-06-08T13:35:13.917Z,7.28
2018-06-08T13:37:43.209Z,10.23
2018-06-08T13:40:12.517Z,8.83
2018-06-08T13:42:41.780Z,6.80
2018-06-08T13:45:10.665Z,4.73
2018-06-08T13:47:39.448Z,12.93
2018-06-08T13:50:08.785Z,8.50
2018-06-08T13:52:38.079Z,4.33
2018-06-08T13:55:07.340Z,6.60
2018-06-08T13:57:36.633Z,7.77
2018-06-08T14:00:05.893Z,7.33
2018-06-08T14:02:35.136Z,9.10
2018-06-08T14:05:04.445Z,9.03
2018-06-08T14:07:33.756Z,4.37
2018-06-08T14:10:02.522Z,7.13
2018-06-08T14:12:31.800Z,7.13
2018-06-08T14:15:01.061Z,10.10
2018-06-08T14:17:30.368Z,14.77
2018-06-08T14:19:59.669Z,6.43
2018-06-08T14:22:28.922Z,8.93
2018-06-08T14:24:58.178Z,13.77
2018-06-08T14:27:27.501Z,18.07
2018-06-08T14:29:56.767Z,11.07
2018-06-08T14:32:26.016Z,11.50
2018-06-08T14:34:55.295Z,11.90
2018-06-08T14:37:24.546Z,5.53
2018-06-08T14:39:53.821Z,11.73
2018-06-08T14:42:23.136Z,2.90
2018-06-08T14:44:51.913Z,4.50
2018-06-08T14:47:21.243Z,7.53
2018-06-08T14:49:50.568Z,6.07
2018-06-08T14:52:19.823Z,10.50
2018-06-08T14:54:48.564Z,8.73
2018-06-08T14:57:17.882Z,6.17
2018-06-08T14:59:47.146Z,5.40
2018-06-08T15:02:16.379Z,2.65
2018-06-08T15:04:45.825Z,3.80
2018-06-08T15:07:15.280Z,9.70
2018-06-08T15:09:44.595Z,6.70
2018-06-08T15:12:14.028Z,12.40
2018-06-08T15:14:42.767Z,21.27
2018-06-08T15:17:12.073Z,11.77
2018-06-08T15:19:41.494Z,4.40
2018-06-08T15:22:10.820Z,6.53
2018-06-08T15:24:40.104Z,8.20
2018-06-08T15:27:09.438Z,7.53
2018-06-08T15:29:38.736Z,9.27
2018-06-08T15:32:07.999Z,9.90
2018-06-08T15:34:36.792Z,10.07
2018-06-08T15:37:05.529Z,6.70
2018-06-08T15:39:34.748Z,7.53
2018-06-08T15:42:04.120Z,11.80
2018-06-08T15:44:33.456Z,9.83
2018-06-08T15:47:02.756Z,6.17
2018-06-08T15:49:32.151Z,6.57
2018-06-08T15:52:01.383Z,7.93
2018-06-08T15:54:30.114Z,10.00
2018-06-08T15:56:59.406Z,6.70
2018-06-08T15:59:28.672Z,6.60
2018-06-08T16:01:57.933Z,9.60
2018-06-08T16:04:27.259Z,4.60
2018-06-08T16:06:56.539Z,7.77
2018-06-08T16:09:25.795Z,8.30
2018-06-08T16:11:55.120Z,4.80
2018-06-08T16:14:24.432Z,3.30
2018-06-08T16:16:54.149Z,7.93
2018-06-08T16:19:23.441Z,4.47
2018-06-08T16:21:52.850Z,3.53
2018-06-08T16:24:22.175Z,7.93
2018-06-08T16:26:51.478Z,5.33
2018-06-08T16:29:20.260Z,23.87
2018-06-08T16:31:49.540Z,15.00
2018-06-08T16:34:18.792Z,10.83
2018-06-08T16:36:48.084Z,4.33
2018-06-08T16:39:17.357Z,7.80
2018-06-08T16:41:46.133Z,7.80
2018-06-08T16:44:15.624Z,3.47
2018-06-08T16:46:45.009Z,14.67
2018-06-08T16:49:14.325Z,10.73
2018-06-08T16:51:43.633Z,14.00
2018-06-08T16:54:12.956Z,10.80
2018-06-08T16:56:41.677Z,3.13
2018-06-08T16:59:11.054Z,12.13
2018-06-08T17:01:39.871Z,3.63
2018-06-08T17:04:09.150Z,3.57
2018-06-08T17:06:37.958Z,8.90
2018-06-08T17:09:07.803Z,12.27
2018-06-08T17:11:37.256Z,7.33
2018-06-08T17:14:06.574Z,3.10
2018-06-08T17:16:35.862Z,5.83
2018-06-08T17:19:05.267Z,8.30
2018-06-08T17:21:34.521Z,7.63
2018-06-08T17:24:03.821Z,4.83
2018-06-08T17:26:33.317Z,11.57
2018-06-08T17:29:02.706Z,8.73
2018-06-08T17:31:32.004Z,3.33
2018-06-08T17:34:01.329Z,3.57
2018-06-08T17:36:30.626Z,3.50
2018-06-08T17:38:59.924Z,21.93
2018-06-08T17:41:29.213Z,2.30
2018-06-08T17:43:58.493Z,7.23
2018-06-08T17:46:27.763Z,6.80
2018-06-08T17:48:57.078Z,2.60
2018-06-08T17:51:26.409Z,5.23
2018-06-08T17:53:55.644Z,2.93
2018-06-08T17:56:24.879Z,6.17
2018-06-08T17:58:54.151Z,11.30
2018-06-08T18:01:23.432Z,29.87
2018-06-08T18:03:52.755Z,3.33
2018-06-08T18:06:22.164Z,13.33
2018-06-08T18:08:51.427Z,10.60
2018-06-08T18:11:20.697Z,5.63
2018-06-08T18:13:49.951Z,6.23
2018-06-08T18:16:19.203Z,2.33
2018-06-08T18:18:48.426Z,3.20
2018-06-08T18:21:17.710Z,2.50
2018-06-08T18:23:46.966Z,4.00
2018-06-08T18:26:16.240Z,5.70
2018-06-08T18:28:46.867Z,5.37
2018-06-08T18:31:15.676Z,11.83
2018-06-08T18:33:44.893Z,4.80
2018-06-08T18:36:14.153Z,5.07
2018-06-08T18:38:43.406Z,2.00
2018-06-08T18:41:12.649Z,2.80
2018-06-08T18:43:42.077Z,6.93
2018-06-08T18:46:11.672Z,6.03
2018-06-08T18:48:40.430Z,4.40
2018-06-08T18:51:09.735Z,16.93
2018-06-08T18:53:39.119Z,6.37
2018-06-08T18:56:08.364Z,7.03
2018-06-08T18:58:37.629Z,5.80
2018-06-08T19:01:06.960Z,7.80
2018-06-08T19:03:35.673Z,11.10
2018-06-08T19:06:05.113Z,20.70
2018-06-08T19:08:34.393Z,12.23
2018-06-08T19:11:03.665Z,10.83
2018-06-08T19:13:32.934Z,8.30
2018-06-08T19:16:02.796Z,9.07
2018-06-08T19:18:32.059Z,10.10
2018-06-08T19:21:00.831Z,11.60
2018-06-08T19:23:30.659Z,11.43
2018-06-08T19:25:59.412Z,17.33
2018-06-08T19:28:28.712Z,7.70
2018-06-08T19:30:58.004Z,11.97
2018-06-08T19:33:27.391Z,8.37
2018-06-08T19:35:56.761Z,13.87
2018-06-08T19:38:26.164Z,9.13
2018-06-08T19:40:55.515Z,14.63
2018-06-08T19:43:24.800Z,12.70
2018-06-08T19:45:54.175Z,11.73
2018-06-08T19:48:23.470Z,14.80
2018-06-08T19:50:52.927Z,22.23
2018-06-08T19:53:22.432Z,15.58
2018-06-08T19:55:51.708Z,14.07
2018-06-08T19:58:21.006Z,13.93
2018-06-08T20:00:50.367Z,15.93
2018-06-08T20:03:19.665Z,16.53
2018-06-08T20:05:48.396Z,13.10
2018-06-08T20:08:17.747Z,16.90
2018-06-08T20:10:46.495Z,14.13
2018-06-08T20:13:15.852Z,17.27
2018-06-08T20:15:45.197Z,10.13
2018-06-08T20:18:14.542Z,11.47
2018-06-08T20:20:43.285Z,11.93
2018-06-08T20:23:12.528Z,18.90
2018-06-08T20:25:41.294Z,21.10
2018-06-08T20:28:10.569Z,10.30
2018-06-08T20:30:39.872Z,13.30
2018-06-08T20:33:09.189Z,13.87
2018-06-08T20:35:38.859Z,13.73
2018-06-08T20:38:08.168Z,21.03
2018-06-08T20:40:37.431Z,13.10
2018-06-08T20:43:06.879Z,22.50
2018-06-08T20:45:36.187Z,16.30
2018-06-08T20:48:05.499Z,17.97
2018-06-08T20:50:34.800Z,14.97
2018-06-08T20:53:04.148Z,11.57
2018-06-08T20:55:33.457Z,14.10
2018-06-08T20:58:03.136Z,15.70
2018-06-08T21:00:31.936Z,13.77
2018-06-08T21:03:01.281Z,20.17
2018-06-08T21:05:30.638Z,18.57
2018-06-08T21:07:59.900Z,12.43
2018-06-08T21:10:29.355Z,14.37
2018-06-08T21:12:58.572Z,14.27
2018-06-08T21:15:27.878Z,12.80
2018-06-08T21:17:57.284Z,12.43
2018-06-08T21:20:26.629Z,14.03
2018-06-08T21:22:55.940Z,15.25
2018-06-08T21:25:25.314Z,9.40
2018-06-08T21:27:54.643Z,11.50
2018-06-08T21:30:23.920Z,11.03
2018-06-08T21:32:52.699Z,12.27
2018-06-08T21:35:22.029Z,11.87
2018-06-08T21:37:51.317Z,17.87
2018-06-08T21:40:20.711Z,17.20
2018-06-08T21:42:55.430Z,15.00
2018-06-08T21:45:24.892Z,11.53
2018-06-08T21:47:54.159Z,15.10
2018-06-08T21:50:23.525Z,18.77
2018-06-08T21:52:52.806Z,18.73
2018-06-08T21:55:22.217Z,21.40
2018-06-08T22:02:00.577Z,10.57
2018-06-08T22:04:29.858Z,9.30
2018-06-08T22:06:59.158Z,13.67
2018-06-08T22:09:28.422Z,10.60
2018-06-08T22:11:57.804Z,10.93
2018-06-08T22:14:27.137Z,8.67
2018-06-08T22:16:56.504Z,13.97
2018-06-08T22:19:25.927Z,12.93
2018-06-08T22:21:55.329Z,11.57
2018-06-08T22:24:25.351Z,11.90
2018-06-08T22:26:54.726Z,11.23
2018-06-08T22:29:24.207Z,18.17
2018-06-08T22:31:53.544Z,14.80
2018-06-08T22:34:22.872Z,15.80
2018-06-08T22:36:52.169Z,21.43
2018-06-08T22:39:21.466Z,22.47
2018-06-08T22:41:50.769Z,16.80
2018-06-08T22:44:20.025Z,11.60
2018-06-08T22:46:49.263Z,12.93
2018-06-08T22:49:18.586Z,12.00
2018-06-08T22:51:47.884Z,17.40
2018-06-08T22:54:17.157Z,14.13
2018-06-08T22:56:46.458Z,13.20
2018-06-08T22:59:15.744Z,15.10
2018-06-08T23:01:45.049Z,24.53
2018-06-08T23:04:14.371Z,16.17
2018-06-08T23:06:43.654Z,13.10
2018-06-08T23:09:12.937Z,12.80
2018-06-08T23:11:42.240Z,12.87
2018-06-08T23:14:11.530Z,10.10
2018-06-08T23:16:40.802Z,14.83
2018-06-08T23:19:10.121Z,10.90
2018-06-08T23:21:39.379Z,13.13
2018-06-08T23:24:08.611Z,17.60
2018-06-08T23:26:37.365Z,12.73
2018-06-08T23:29:06.636Z,12.03
2018-06-08T23:31:35.894Z,17.90
2018-06-08T23:34:04.669Z,9.70
2018-06-08T23:36:33.949Z,18.53
2018-06-08T23:39:03.355Z,13.60
2018-06-08T23:41:32.678Z,19.30
2018-06-08T23:44:01.971Z,11.90
2018-06-08T23:46:31.236Z,12.50
2018-06-08T23:49:00.534Z,17.63
2018-06-08T23:51:29.839Z,16.33
2018-06-08T23:53:59.097Z,17.07
2018-06-08T23:56:28.412Z,19.10
2018-06-08T23:58:57.627Z,17.93
